BGGH

Details ICAO BGGH (GOH)
Name Nuuk - Godthab
Region Greenland
Timezone America/Godthab (UTC-3.0)
Plans Departing 403
Arriving 505
Stats Elevation 283 ft / 86 m (AMSL)
Location 64.190900° -51.678100°
Runways 1
Magnetic Variation 26.592° W
Sunrise 2019-02-21 11:04:45 UTC / 2019-02-21 08:04:45 Local
Sunset 2019-02-21 20:18:55 UTC / 2019-02-21 17:18:55 Local
Advertisement - Login to hide

Runways

ID Width Length Bearing (true/mag) Surface Threshold Overrun Markings Lighting
05 98 ft / 30 m 3,120 ft / 951 m 19.56° / 46.15° CONCRETE 0 ft / 0 m 0 ft / 0 m APP EDGE THRESHOLD
23 98 ft / 30 m 3,120 ft / 951 m 199.56° / 226.15° CONCRETE 0 ft / 0 m 0 ft / 0 m APP EDGE THRESHOLD MALSR

Map

Weather


0- 5 10 15 20 25 30 35+ Temperature / °C

Clouds and Precipitation
Forecast for 2019-02-21 12:00 UTC. Updated 6 hours ago

Ground ~20,000 ft ~40,000 ft Winds

METAR

BGGH 211450Z 32015KT 9999 DRSN OVC010 M07/M09 Q0971

TAF

Not found

Frequencies

Tower 119.10 MHz AFIS
Recorded 121.30 MHz Nuuk Info
Warning: Do not use this data for real-world aviation or navigation. No guarantee of current accuracy is given.